메인 페이지
METAR-TAF:

METAR-TAF

공항 :

시애틀 터코마 국제공항

시애틀 / 터코마, 워싱턴, 미국

위도: 47-26-41N, 경도: 122-18-49W, 고도: 130m

현재 날씨관측

예보는 15분 전, 05:53시(UTC)에 발표되었습니다.
3kt
온도 23°C
습도 38%
기압 1015 hPa
시정: 16.1km
맑음

METAR: KSEA 170553Z 27003KT 10SM CLR 23/08 A2998 RMK AO2 SLP155 T02330083 10328 20233 53005

시각: 23:08 (06:08 UTC)

예보

예보는 43분 전, 05:25시(UTC)에 발표되었습니다.
예보 대상 시간: 17일 06시부터 18일 12시까지 (UTC)
6kt
시정: 10km
맑음
17일 0900시부터 (UTC)
남남서5kt
시정: 10km
맑음
17일 1800시부터 (UTC)
남서8kt
시정: 10km
맑음

TAF: KSEA 170525Z 1706/1812 36006KT P6SM SKC FM170900 20005KT P6SM SKC FM171800 23008KT P6SM SKC

4,000개 이상의 공항 관측 자료 및 예보 (METAR 및 TAF 보고).

지도상에서 검색 가능한 기상관측소가 노란 점과 빨간 점으로 표시되어 있습니다.

기상관측소 명을 보려면 표시 위로 마우스를 이동하세요.

날씨 관측과 예보를 보려면 클릭하세요.

지도 변경 : 확대하려면 엑스 표시가 있는 녹색 버튼, 축소하려면 빼기 표시가 있는 녹색 버튼, 다음 페이지의 지도를 보려면 녹색 화살표를 클릭하세요.


METAR-TAF: